createdAt,value
2019-04-06T00:00:40.038Z,41.57
2019-04-06T00:03:08.575Z,39.03
2019-04-06T00:05:37.075Z,36.87
2019-04-06T00:08:05.820Z,43.10
2019-04-06T00:10:34.446Z,42.83
2019-04-06T00:13:03.003Z,40.28
2019-04-06T00:15:31.571Z,42.93
2019-04-06T00:18:00.134Z,40.60
2019-04-06T00:20:28.687Z,42.83
2019-04-06T00:22:57.485Z,39.03
2019-04-06T00:25:26.014Z,43.02
2019-04-06T00:27:54.504Z,40.00
2019-04-06T00:30:23.520Z,38.30
2019-04-06T00:33:08.514Z,43.98
2019-04-06T00:35:37.016Z,43.45
2019-04-06T00:38:05.809Z,38.48
2019-04-06T00:40:34.452Z,36.30
2019-04-06T00:43:02.912Z,36.73
2019-04-06T00:45:31.436Z,36.60
2019-04-06T00:47:59.918Z,38.88
2019-04-06T00:50:28.408Z,38.10
2019-04-06T00:52:56.931Z,38.77
2019-04-06T00:55:25.420Z,35.70
2019-04-06T00:57:53.896Z,38.73
2019-04-06T01:00:22.526Z,38.83
2019-04-06T01:02:51.085Z,39.53
2019-04-06T01:05:19.611Z,36.73
2019-04-06T01:07:48.151Z,34.97
2019-04-06T01:10:16.794Z,38.55
2019-04-06T01:12:45.591Z,38.48
2019-04-06T01:15:14.576Z,39.63
2019-04-06T01:17:43.135Z,44.10
2019-04-06T01:20:11.741Z,43.37
2019-04-06T01:22:40.271Z,46.77
2019-04-06T01:25:09.004Z,44.10
2019-04-06T01:27:37.724Z,43.10
2019-04-06T01:30:07.983Z,46.88
2019-04-06T01:32:36.462Z,51.43
2019-04-06T01:35:05.563Z,53.28
2019-04-06T01:37:34.068Z,59.40
2019-04-06T01:40:03.172Z,62.47
2019-04-06T01:42:31.698Z,63.20
2019-04-06T01:45:00.155Z,67.72
2019-04-06T01:47:28.648Z,64.37
2019-04-06T01:49:57.183Z,55.90
2019-04-06T01:52:25.675Z,57.00
2019-04-06T01:54:54.164Z,53.40
2019-04-06T01:57:22.630Z,50.70
2019-04-06T01:59:51.433Z,46.87
2019-04-06T02:02:24.315Z,48.93
2019-04-06T02:04:53.019Z,50.80
2019-04-06T02:07:21.543Z,51.20
2019-04-06T02:09:50.107Z,54.75
2019-04-06T02:12:18.608Z,59.33
2019-04-06T02:14:47.407Z,63.70
2019-04-06T02:17:15.928Z,60.17
2019-04-06T02:19:44.454Z,66.27
2019-04-06T02:22:13.238Z,68.53
2019-04-06T02:24:41.797Z,67.65
2019-04-06T02:27:11.260Z,71.97
2019-04-06T02:29:39.789Z,69.77
2019-04-06T02:32:12.499Z,68.92
2019-04-06T02:34:51.603Z,70.77
2019-04-06T02:37:30.750Z,70.83
2019-04-06T02:40:09.592Z,63.83
2019-04-06T02:42:39.792Z,68.92
2019-04-06T02:45:08.490Z,65.77
2019-04-06T02:47:37.073Z,63.30
2019-04-06T02:50:09.353Z,63.52
2019-04-06T02:52:37.808Z,60.03
2019-04-06T02:55:06.402Z,65.17
2019-04-06T02:57:34.902Z,59.17
2019-04-06T03:00:04.771Z,57.23
2019-04-06T03:02:33.391Z,62.65
2019-04-06T03:05:01.962Z,60.80
2019-04-06T03:07:30.572Z,66.40
2019-04-06T03:09:59.369Z,61.90
2019-04-06T03:12:28.206Z,67.32
2019-04-06T03:14:56.798Z,69.32
2019-04-06T03:17:25.305Z,76.57
2019-04-06T03:19:54.061Z,70.30
2019-04-06T03:22:22.523Z,75.03
2019-04-06T03:24:51.063Z,75.72
2019-04-06T03:27:19.669Z,74.95
2019-04-06T03:29:57.817Z,75.67
2019-04-06T03:32:18.738Z,75.70
2019-04-06T03:34:47.269Z,76.37
2019-04-06T03:37:15.768Z,83.87
2019-04-06T03:39:44.256Z,75.73
2019-04-06T03:42:12.841Z,84.00
2019-04-06T03:44:41.339Z,77.42
2019-04-06T03:47:10.040Z,79.87
2019-04-06T03:49:38.571Z,78.43
2019-04-06T03:52:07.193Z,77.43
2019-04-06T03:54:35.892Z,77.55
2019-04-06T03:57:15.038Z,85.72
2019-04-06T03:59:34.725Z,78.37
2019-04-06T04:02:03.246Z,82.57
2019-04-06T04:04:31.741Z,79.40
2019-04-06T04:07:00.275Z,83.75
2019-04-06T04:09:28.753Z,76.45
2019-04-06T04:11:57.365Z,82.67
2019-04-06T04:14:25.943Z,78.03
2019-04-06T04:16:54.621Z,84.30
2019-04-06T04:19:23.130Z,81.80
2019-04-06T04:21:51.635Z,82.00
2019-04-06T04:24:20.097Z,76.30
2019-04-06T04:26:48.934Z,80.30
2019-04-06T04:29:17.390Z,85.57
2019-04-06T04:31:45.878Z,91.12
2019-04-06T04:34:14.415Z,91.12
2019-04-06T04:36:42.877Z,91.13
2019-04-06T04:39:11.414Z,89.22
2019-04-06T04:41:40.401Z,89.05
2019-04-06T04:44:09.203Z,93.00
2019-04-06T04:46:37.662Z,89.53
2019-04-06T04:49:06.297Z,92.22
2019-04-06T04:51:34.756Z,92.45
2019-04-06T04:54:03.260Z,89.80
2019-04-06T04:56:31.999Z,100.85
2019-04-06T04:59:00.490Z,84.60
2019-04-06T05:01:29.030Z,86.85
2019-04-06T05:03:57.588Z,86.95
2019-04-06T05:06:26.125Z,89.22
2019-04-06T05:08:54.941Z,87.53
2019-04-06T05:11:23.487Z,86.20
2019-04-06T05:13:55.027Z,84.60
2019-04-06T05:16:23.487Z,80.55
2019-04-06T05:18:51.968Z,82.13
2019-04-06T05:21:20.499Z,86.22
2019-04-06T05:23:48.969Z,87.35
2019-04-06T05:26:17.467Z,87.10
2019-04-06T05:28:45.930Z,97.50
2019-04-06T05:31:14.466Z,103.12
2019-04-06T05:33:42.958Z,110.05
2019-04-06T05:36:11.852Z,104.53
2019-04-06T05:38:40.327Z,96.67
2019-04-06T05:41:08.952Z,108.95
2019-04-06T05:43:37.416Z,110.55
2019-04-06T05:46:05.917Z,104.27
2019-04-06T05:48:36.856Z,93.17
2019-04-06T05:51:05.084Z,91.83
2019-04-06T05:53:33.605Z,93.33
2019-04-06T05:56:02.092Z,97.97
2019-04-06T05:58:30.547Z,95.20
2019-04-06T06:00:59.366Z,81.50
2019-04-06T06:03:27.913Z,87.17
2019-04-06T06:05:56.367Z,83.47
2019-04-06T06:08:24.839Z,76.85
2019-04-06T06:10:53.606Z,79.87
2019-04-06T06:13:22.137Z,73.47
2019-04-06T06:15:50.617Z,72.78
2019-04-06T06:18:26.357Z,73.07
2019-04-06T06:20:49.340Z,67.30
2019-04-06T06:23:17.918Z,65.78
2019-04-06T06:25:46.531Z,61.73
2019-04-06T06:28:15.626Z,60.40
2019-04-06T06:30:44.168Z,56.13
2019-04-06T06:33:12.711Z,50.67
2019-04-06T06:35:41.184Z,49.45
2019-04-06T06:38:09.723Z,52.55
2019-04-06T06:40:38.278Z,47.27
2019-04-06T06:43:06.878Z,48.85
2019-04-06T06:45:35.438Z,42.48
2019-04-06T06:48:04.135Z,42.43
2019-04-06T06:50:34.528Z,46.50
2019-04-06T06:53:03.145Z,59.88
2019-04-06T06:55:31.788Z,48.28
2019-04-06T06:58:00.515Z,46.40
2019-04-06T07:00:29.299Z,44.83
2019-04-06T07:02:57.788Z,40.35
2019-04-06T07:05:26.314Z,44.48
2019-04-06T07:07:54.775Z,42.45
2019-04-06T07:10:23.263Z,44.27
2019-04-06T07:12:51.872Z,41.98
2019-04-06T07:15:20.410Z,41.98
2019-04-06T07:17:48.991Z,39.50
2019-04-06T07:20:17.790Z,41.77
2019-04-06T07:22:46.243Z,42.50
2019-04-06T07:25:15.063Z,37.58
2019-04-06T07:27:43.548Z,43.38
2019-04-06T07:30:12.552Z,39.50
2019-04-06T07:32:41.052Z,42.67
2019-04-06T07:35:10.809Z,40.28
2019-04-06T07:37:39.349Z,42.00
2019-04-06T07:40:08.889Z,39.38
2019-04-06T07:42:37.405Z,39.08
2019-04-06T07:45:07.291Z,39.70
2019-04-06T07:47:36.030Z,40.23
2019-04-06T07:50:07.373Z,38.90
2019-04-06T07:52:36.440Z,37.78
2019-04-06T07:55:08.554Z,40.85
2019-04-06T07:57:37.099Z,40.15
2019-04-06T08:00:07.277Z,40.60
2019-04-06T08:02:35.962Z,39.85
2019-04-06T08:05:06.431Z,38.98
2019-04-06T08:07:35.030Z,39.42
2019-04-06T08:10:04.263Z,41.28
2019-04-06T08:12:32.832Z,39.85
2019-04-06T08:15:01.320Z,38.33
2019-04-06T08:17:30.235Z,40.27
2019-04-06T08:19:58.764Z,35.92
2019-04-06T08:22:27.218Z,38.98
2019-04-06T08:24:55.754Z,38.75
2019-04-06T08:27:24.401Z,40.40
2019-04-06T08:29:53.328Z,40.23
2019-04-06T08:32:21.883Z,38.02
2019-04-06T08:34:50.352Z,39.00
2019-04-06T08:37:18.863Z,37.33
2019-04-06T08:39:47.409Z,38.70
2019-04-06T08:42:16.349Z,36.55
2019-04-06T08:44:44.891Z,41.48
2019-04-06T08:47:13.467Z,40.55
2019-04-06T08:49:41.991Z,38.30
2019-04-06T08:52:11.749Z,37.93
2019-04-06T08:54:40.558Z,39.63
2019-04-06T08:57:09.412Z,37.17
2019-04-06T08:59:37.995Z,46.13
2019-04-06T09:02:06.609Z,36.73
2019-04-06T09:04:35.216Z,40.15
2019-04-06T09:07:03.703Z,40.10
2019-04-06T09:09:32.329Z,41.15
2019-04-06T09:12:00.794Z,42.10
2019-04-06T09:14:29.510Z,44.27
2019-04-06T09:16:58.075Z,38.13
2019-04-06T09:19:26.545Z,37.93
2019-04-06T09:21:55.011Z,41.33
2019-04-06T09:24:23.579Z,42.35
2019-04-06T09:26:52.042Z,37.38
2019-04-06T09:29:23.639Z,38.98
2019-04-06T09:31:50.735Z,38.30
2019-04-06T09:34:19.270Z,40.58
2019-04-06T09:36:47.739Z,37.73
2019-04-06T09:39:16.239Z,35.50
2019-04-06T09:41:44.926Z,38.38
2019-04-06T09:44:21.192Z,38.30
2019-04-06T09:47:00.011Z,36.68
2019-04-06T09:49:39.112Z,37.03
2019-04-06T09:52:26.863Z,37.35
2019-04-06T09:55:02.970Z,37.90
2019-04-06T09:57:36.207Z,37.38
2019-04-06T10:00:10.852Z,37.80
2019-04-06T10:02:50.114Z,35.63
2019-04-06T10:05:29.762Z,37.25
2019-04-06T10:08:14.750Z,37.67
2019-04-06T10:11:00.765Z,38.10
2019-04-06T10:13:31.139Z,36.60
2019-04-06T10:16:01.375Z,42.10
2019-04-06T10:18:31.524Z,37.95
2019-04-06T10:21:10.475Z,37.67
2019-04-06T10:23:43.273Z,39.00
2019-04-06T10:26:19.340Z,34.83
2019-04-06T10:28:49.787Z,35.00
2019-04-06T10:31:20.164Z,34.33
2019-04-06T10:34:02.052Z,32.00
2019-04-06T10:36:32.520Z,36.05
2019-04-06T10:39:02.614Z,35.00
2019-04-06T10:41:38.631Z,32.65
2019-04-06T10:44:17.700Z,31.20
2019-04-06T10:46:47.847Z,33.18
2019-04-06T10:49:26.549Z,30.90
2019-04-06T10:51:56.760Z,31.10
2019-04-06T10:54:35.539Z,32.23
2019-04-06T10:57:05.802Z,28.93
2019-04-06T11:00:01.082Z,30.57
2019-04-06T11:02:40.202Z,27.67
2019-04-06T11:05:13.537Z,31.20
2019-04-06T11:07:59.714Z,29.72
2019-04-06T11:10:32.578Z,28.57
2019-04-06T11:13:12.367Z,26.57
2019-04-06T11:15:48.599Z,26.15
2019-04-06T11:18:35.091Z,24.12
2019-04-06T11:21:20.396Z,24.25
2019-04-06T11:23:53.007Z,26.20
2019-04-06T11:26:38.887Z,24.07
2019-04-06T11:29:14.676Z,26.45
2019-04-06T11:31:44.857Z,26.70
2019-04-06T11:34:31.195Z,28.40
2019-04-06T11:37:17.701Z,25.80
2019-04-06T11:39:51.013Z,27.48
2019-04-06T11:42:37.208Z,28.42
2019-04-06T11:45:14.815Z,28.60
2019-04-06T11:48:00.974Z,26.30
2019-04-06T11:50:31.162Z,27.98
2019-04-06T11:53:04.232Z,23.45
2019-04-06T11:55:40.447Z,21.52
2019-04-06T11:58:27.070Z,19.02
2019-04-06T12:00:57.308Z,20.15
2019-04-06T12:03:27.482Z,20.35
2019-04-06T12:06:03.422Z,19.62
2019-04-06T12:08:39.359Z,18.82
2019-04-06T12:11:09.735Z,18.92
2019-04-06T12:13:40.153Z,18.07
2019-04-06T12:16:26.669Z,18.48
2019-04-06T12:19:15.166Z,17.05
2019-04-06T12:21:48.455Z,16.35
2019-04-06T12:24:34.741Z,16.62
2019-04-06T12:27:14.168Z,16.00
2019-04-06T12:29:47.086Z,16.37
2019-04-06T12:32:25.784Z,16.30
2019-04-06T12:34:59.257Z,16.65
2019-04-06T12:37:35.410Z,15.72
2019-04-06T12:40:13.047Z,16.45
2019-04-06T12:42:43.342Z,18.30
2019-04-06T12:45:13.848Z,17.42
2019-04-06T12:47:59.996Z,17.55
2019-04-06T12:50:30.597Z,16.60
2019-04-06T12:53:12.624Z,17.90
2019-04-06T12:55:45.509Z,16.40
2019-04-06T12:58:21.780Z,16.30
2019-04-06T13:00:54.662Z,17.17
2019-04-06T13:03:30.811Z,16.62
2019-04-06T13:06:00.993Z,16.62
2019-04-06T13:08:31.530Z,16.23
2019-04-06T13:11:01.673Z,16.67
2019-04-06T13:13:47.044Z,15.98
2019-04-06T13:16:17.225Z,17.40
2019-04-06T13:18:50.649Z,16.52
2019-04-06T13:21:20.898Z,16.60
2019-04-06T13:24:03.078Z,17.20
2019-04-06T13:26:33.841Z,18.15
2019-04-06T13:29:06.990Z,18.55
2019-04-06T13:31:39.883Z,18.70
2019-04-06T13:34:13.028Z,18.10
2019-04-06T13:36:49.436Z,16.50
2019-04-06T13:39:19.565Z,19.05
2019-04-06T13:42:06.071Z,18.70
2019-04-06T13:44:39.270Z,17.80
2019-04-06T13:47:21.263Z,18.17
2019-04-06T13:50:09.424Z,18.02
2019-04-06T13:52:42.325Z,22.22
2019-04-06T13:55:24.240Z,18.50
2019-04-06T13:58:03.152Z,17.98
2019-04-06T14:00:49.406Z,17.30
2019-04-06T14:03:19.573Z,17.17
2019-04-06T14:05:49.686Z,17.77
2019-04-06T14:08:19.811Z,17.80
2019-04-06T14:10:55.883Z,17.60
2019-04-06T14:13:28.794Z,16.93
2019-04-06T14:15:59.181Z,18.55
2019-04-06T14:18:35.385Z,16.85
2019-04-06T14:21:21.932Z,17.52
2019-04-06T14:23:52.171Z,17.05
2019-04-06T14:26:22.280Z,16.20
2019-04-06T14:28:52.610Z,16.00
2019-04-06T14:31:34.886Z,15.50
2019-04-06T14:34:05.053Z,15.68
2019-04-06T14:36:44.226Z,15.72
2019-04-06T14:39:26.504Z,16.85
2019-04-06T14:42:13.051Z,16.82
2019-04-06T14:44:43.250Z,17.12
2019-04-06T14:47:25.202Z,16.20
2019-04-06T14:50:10.792Z,17.35
2019-04-06T14:52:57.440Z,17.40
2019-04-06T14:55:40.117Z,16.97
2019-04-06T14:58:10.592Z,16.52
2019-04-06T15:00:56.947Z,16.47
2019-04-06T15:03:33.387Z,16.80
2019-04-06T15:06:09.587Z,16.70
2019-04-06T15:08:42.680Z,17.07
2019-04-06T15:11:27.619Z,17.20
2019-04-06T15:14:04.206Z,17.80
2019-04-06T15:16:43.436Z,17.90
2019-04-06T15:19:13.984Z,17.23
2019-04-06T15:21:53.271Z,17.20
2019-04-06T15:24:23.415Z,17.40
2019-04-06T15:27:02.312Z,16.40
2019-04-06T15:29:50.387Z,16.40
2019-04-06T15:32:26.284Z,16.07
2019-04-06T15:34:56.482Z,16.00
2019-04-06T15:37:35.395Z,15.72
2019-04-06T15:40:13.622Z,16.77
2019-04-06T15:43:00.450Z,16.60
2019-04-06T15:45:46.806Z,16.00
2019-04-06T15:48:37.058Z,15.88
2019-04-06T15:51:09.572Z,17.23
2019-04-06T15:53:49.012Z,17.37
2019-04-06T15:56:35.412Z,16.62
2019-04-06T15:59:11.412Z,16.80
2019-04-06T16:02:01.545Z,17.23
2019-04-06T16:04:48.031Z,16.10
2019-04-06T16:07:36.547Z,16.87
2019-04-06T16:10:15.335Z,16.75
2019-04-06T16:12:45.833Z,16.77
2019-04-06T16:15:27.668Z,16.65
2019-04-06T16:17:57.792Z,15.98
2019-04-06T16:20:39.765Z,16.50
2019-04-06T16:23:13.125Z,16.35
2019-04-06T16:25:43.403Z,16.48
2019-04-06T16:28:22.208Z,16.50
2019-04-06T16:30:52.659Z,15.97
2019-04-06T16:33:22.954Z,14.87
2019-04-06T16:35:59.136Z,14.33
2019-04-06T16:38:35.305Z,14.85
2019-04-06T16:41:05.563Z,14.60
2019-04-06T16:43:36.069Z,14.60
2019-04-06T16:46:21.239Z,14.10
2019-04-06T16:49:09.503Z,13.15
2019-04-06T16:51:48.177Z,13.83
2019-04-06T16:54:33.094Z,14.15
2019-04-06T16:57:06.154Z,14.20
2019-04-06T16:59:52.340Z,14.37
2019-04-06T17:02:25.431Z,14.83
2019-04-06T17:04:58.411Z,14.83
2019-04-06T17:07:46.919Z,13.88
2019-04-06T17:10:17.095Z,14.47
2019-04-06T17:12:50.276Z,14.50
2019-04-06T17:15:23.635Z,15.48
2019-04-06T17:18:08.752Z,15.10
2019-04-06T17:20:42.414Z,15.90
2019-04-06T17:23:21.288Z,15.65
2019-04-06T17:25:51.420Z,16.20
2019-04-06T17:28:37.746Z,15.55
2019-04-06T17:31:10.655Z,15.80
2019-04-06T17:33:53.189Z,16.27
2019-04-06T17:36:26.123Z,16.25
2019-04-06T17:39:12.035Z,17.70
2019-04-06T17:41:44.910Z,19.80
2019-04-06T17:44:17.563Z,21.70
2019-04-06T17:46:57.234Z,24.20
2019-04-06T17:49:43.936Z,25.17
2019-04-06T17:52:20.323Z,22.77
2019-04-06T17:55:06.804Z,21.17
2019-04-06T17:57:45.715Z,19.52
2019-04-06T18:00:16.115Z,19.25
2019-04-06T18:02:52.029Z,18.92
2019-04-06T18:05:22.672Z,19.00
2019-04-06T18:07:52.840Z,18.98
2019-04-06T18:10:23.085Z,18.92
2019-04-06T18:12:53.479Z,19.42
2019-04-06T18:15:22.021Z,19.03
2019-04-06T18:17:50.576Z,18.80
2019-04-06T18:20:19.628Z,19.37
2019-04-06T18:22:48.355Z,18.40
2019-04-06T18:25:16.987Z,18.40
2019-04-06T18:27:45.453Z,18.07
2019-04-06T18:30:14.616Z,17.90
2019-04-06T18:32:44.916Z,19.15
2019-04-06T18:35:13.466Z,17.60
2019-04-06T18:37:43.595Z,18.67
2019-04-06T18:40:14.363Z,18.50
2019-04-06T18:42:42.830Z,18.80
2019-04-06T18:45:11.891Z,17.90
2019-04-06T18:47:40.644Z,19.05
2019-04-06T18:50:09.448Z,17.73
2019-04-06T18:52:38.418Z,19.75
2019-04-06T18:55:07.504Z,18.37
2019-04-06T18:57:35.976Z,20.20
2019-04-06T19:00:07.592Z,20.62
2019-04-06T19:02:36.147Z,22.50
2019-04-06T19:05:07.805Z,22.00
2019-04-06T19:07:36.294Z,22.02
2019-04-06T19:10:08.339Z,22.57
2019-04-06T19:12:36.851Z,23.50
2019-04-06T19:15:08.184Z,25.32
2019-04-06T19:17:37.254Z,24.63
2019-04-06T19:20:07.955Z,24.90
2019-04-06T19:22:36.777Z,25.62
2019-04-06T19:25:06.975Z,25.40
2019-04-06T19:27:35.577Z,24.67
2019-04-06T19:30:07.117Z,25.77
2019-04-06T19:32:35.675Z,26.07
2019-04-06T19:35:06.883Z,26.05
2019-04-06T19:37:35.519Z,26.23
2019-04-06T19:40:06.298Z,26.30
2019-04-06T19:42:35.186Z,26.23
2019-04-06T19:45:08.339Z,26.47
2019-04-06T19:47:37.039Z,25.80
2019-04-06T19:50:07.641Z,25.82
2019-04-06T19:52:36.117Z,25.88
2019-04-06T19:55:06.238Z,30.37
2019-04-06T19:57:35.228Z,32.05
2019-04-06T20:00:06.793Z,33.23
2019-04-06T20:02:35.352Z,32.98
2019-04-06T20:05:07.544Z,33.30
2019-04-06T20:07:36.574Z,32.42
2019-04-06T20:10:08.433Z,30.17
2019-04-06T20:12:37.650Z,31.37
2019-04-06T20:15:07.502Z,31.35
2019-04-06T20:17:36.332Z,28.63
2019-04-06T20:20:06.632Z,26.90
2019-04-06T20:22:36.517Z,29.72
2019-04-06T20:25:07.138Z,28.73
2019-04-06T20:27:35.679Z,29.47
2019-04-06T20:30:07.784Z,30.72
2019-04-06T20:32:36.400Z,30.70
2019-04-06T20:35:07.575Z,30.45
2019-04-06T20:37:36.192Z,30.90
2019-04-06T20:40:08.607Z,30.90
2019-04-06T20:42:37.167Z,30.80
2019-04-06T20:45:08.098Z,30.48
2019-04-06T20:47:37.041Z,25.25
2019-04-06T20:50:08.076Z,26.53
2019-04-06T20:52:37.070Z,27.30
2019-04-06T20:55:06.769Z,27.17
2019-04-06T20:57:35.323Z,25.88
2019-04-06T21:00:08.177Z,25.27
2019-04-06T21:02:37.171Z,27.80
2019-04-06T21:05:07.254Z,22.77
2019-04-06T21:07:35.886Z,23.02
2019-04-06T21:10:07.114Z,21.93
2019-04-06T21:12:35.647Z,21.50
2019-04-06T21:15:17.838Z,23.40
2019-04-06T21:17:37.059Z,22.27
2019-04-06T21:20:07.397Z,22.60
2019-04-06T21:22:36.254Z,23.32
2019-04-06T21:25:05.997Z,22.55
2019-04-06T21:27:35.152Z,23.25
2019-04-06T21:30:06.378Z,23.12
2019-04-06T21:32:35.055Z,22.85
2019-04-06T21:35:05.537Z,22.97
2019-04-06T21:37:34.535Z,22.98
2019-04-06T21:40:03.858Z,22.27
2019-04-06T21:42:32.995Z,25.30
2019-04-06T21:45:01.590Z,23.20
2019-04-06T21:47:30.773Z,24.67
2019-04-06T21:49:59.300Z,24.12
2019-04-06T21:52:27.763Z,24.40
2019-04-06T21:54:56.857Z,24.45
2019-04-06T21:57:25.395Z,24.60
2019-04-06T21:59:53.857Z,24.70
2019-04-06T22:02:22.882Z,26.50
2019-04-06T22:04:51.439Z,26.73
2019-04-06T22:07:19.968Z,28.92
2019-04-06T22:09:49.134Z,28.50
2019-04-06T22:12:17.685Z,29.20
2019-04-06T22:14:46.196Z,28.90
2019-04-06T22:17:15.240Z,28.77
2019-04-06T22:19:44.008Z,28.38
2019-04-06T22:22:12.547Z,29.52
2019-04-06T22:24:41.802Z,29.80
2019-04-06T22:27:10.864Z,32.60
2019-04-06T22:29:39.770Z,31.07
2019-04-06T22:32:08.729Z,32.00
2019-04-06T22:34:40.173Z,30.00
2019-04-06T22:37:07.539Z,33.18
2019-04-06T22:39:36.454Z,31.55
2019-04-06T22:42:05.119Z,30.95
2019-04-06T22:44:33.584Z,30.52
2019-04-06T22:47:02.429Z,31.77
2019-04-06T22:49:30.915Z,33.48
2019-04-06T22:51:59.465Z,32.15
2019-04-06T22:54:28.008Z,32.75
2019-04-06T22:56:56.725Z,31.52
2019-04-06T22:59:25.666Z,32.38
2019-04-06T23:01:54.981Z,32.70
2019-04-06T23:04:31.275Z,33.55
2019-04-06T23:07:04.324Z,34.70
2019-04-06T23:09:32.790Z,34.03
2019-04-06T23:12:01.837Z,35.52
2019-04-06T23:14:30.379Z,34.55
2019-04-06T23:16:59.780Z,35.80
2019-04-06T23:19:28.627Z,35.95
2019-04-06T23:21:57.561Z,37.38
2019-04-06T23:24:27.146Z,37.85
2019-04-06T23:26:55.729Z,37.00
2019-04-06T23:29:24.293Z,36.13
2019-04-06T23:31:53.124Z,37.33
2019-04-06T23:34:21.675Z,38.55
2019-04-06T23:36:50.183Z,39.15
2019-04-06T23:39:18.726Z,39.63
2019-04-06T23:41:47.269Z,40.65
2019-04-06T23:44:15.754Z,41.30
2019-04-06T23:46:44.218Z,42.05
2019-04-06T23:49:13.292Z,39.50
2019-04-06T23:51:42.577Z,44.85
2019-04-06T23:54:11.422Z,42.17
2019-04-06T23:56:40.565Z,37.58
2019-04-06T23:59:09.651Z,38.55
